KDEQ

J Lynn Helms Sevier County Airport

De Queen, Arkansas, USA
METAR KDEQ 210353Z AUTO 00000KT 10SM CLR 22/21 A2998 RMK AO2 SLP146 T02220206 TSNO
Observed Flight Rules
Aug-21 @ 03:53 UTC (19 minutes ago) Visual Flight Rules
Visibility Clouds
10 miles
  • Clear skies
Temperatures Readings
Current 22°C / 72°F
Dewpoint 21°C / 70°F
Humidity 94%
Altimeter 29.98" Hg
Pressure 1014.6 hPa
Elevation 106
METAR KDEQ 210353Z AUTO 00000KT 10SM CLR 22/21 A2998 RMK AO2 SLP146 T02220206 TSNO
Observed Flight Rules
Aug-21 @ 03:53 UTC
(19 minutes ago)
VFR
Clouds
  • Clear skies
Temperature Dewpoint
22°C / 72°F 21°C / 70°F
Humidity Altimeter Pressure
94% 29.98" Hg 1014.6 hPa